Time;durP1;ratioP1;P1;durP2;ratioP2;P2;SDS_P1;SDS_P2;PMS_P1;PMS_P2;Temp;Humidity;BMP_temperature;BMP_pressure;BME280_temperature;BME280_humidity;BME280_pressure;Samples;Min_cycle;Max_cycle;Signal;HPM_P1;HPM_P2
2023/09/10 00:01:04;;;;;;;4.40;3.63;;;25.30;59.10;;;;;;4868625;28;90479;-87
2023/09/10 00:03:32;;;;;;;5.35;3.40;;;25.30;59.00;;;;;;4851862;28;88877;-88
2023/09/10 00:05:59;;;;;;;3.35;3.05;;;25.30;59.20;;;;;;4871941;28;87677;-88
2023/09/10 00:08:26;;;;;;;4.00;3.55;;;25.30;59.20;;;;;;4857085;28;89634;-88
2023/09/10 00:10:51;;;;;;;4.05;3.65;;;25.30;59.40;;;;;;4853776;28;90899;-86
2023/09/10 00:13:17;;;;;;;3.53;3.03;;;25.30;59.30;;;;;;4868938;28;87509;-88
2023/09/10 00:15:43;;;;;;;5.30;3.65;;;25.30;59.50;;;;;;4870630;28;87838;-88
2023/09/10 00:18:09;;;;;;;4.15;3.60;;;25.30;59.40;;;;;;4856429;28;90675;-88
2023/09/10 00:20:35;;;;;;;4.35;3.35;;;25.30;59.60;;;;;;4853571;28;90225;-87
2023/09/10 00:23:00;;;;;;;5.35;3.58;;;25.30;59.60;;;;;;4852432;28;87955;-88
2023/09/10 00:25:26;;;;;;;3.35;3.03;;;25.30;59.60;;;;;;4857179;28;89841;-89
2023/09/10 00:27:52;;;;;;;4.10;3.70;;;25.30;59.80;;;;;;4850794;28;91442;-86
2023/09/10 00:30:18;;;;;;;3.80;3.47;;;25.30;59.80;;;;;;4870115;28;88354;-87
2023/09/10 00:32:44;;;;;;;3.58;3.28;;;25.30;59.90;;;;;;4855609;28;87685;-88
2023/09/10 00:35:09;;;;;;;4.90;4.13;;;25.30;59.90;;;;;;4870931;28;87827;-88
2023/09/10 00:37:35;;;;;;;3.83;3.40;;;25.30;59.80;;;;;;4872367;28;87759;-87
2023/09/10 00:40:01;;;;;;;4.63;3.40;;;25.30;59.90;;;;;;4871328;28;87037;-88
2023/09/10 00:42:26;;;;;;;3.00;2.72;;;25.20;59.80;;;;;;4868653;28;88122;-89
2023/09/10 00:44:52;;;;;;;3.95;3.58;;;25.30;59.90;;;;;;4872225;28;87380;-88
2023/09/10 00:47:18;;;;;;;4.78;3.55;;;25.20;59.90;;;;;;4855585;28;90184;-87
2023/09/10 00:49:44;;;;;;;3.78;3.38;;;25.30;60.30;;;;;;4873228;28;88191;-87
2023/09/10 00:52:11;;;;;;;3.80;3.40;;;25.20;60.30;;;;;;4876791;28;88436;-87
2023/09/10 00:54:37;;;;;;;4.05;3.70;;;25.20;60.10;;;;;;4871537;28;89420;-88
2023/09/10 00:57:04;;;;;;;3.60;3.30;;;25.20;60.20;;;;;;4885530;28;90104;-87
2023/09/10 00:59:30;;;;;;;3.17;2.92;;;25.20;59.90;;;;;;4887891;28;87630;-88
2023/09/10 01:01:58;;;;;;;3.70;3.28;;;25.20;60.00;;;;;;4853227;28;87632;-88
2023/09/10 01:04:24;;;;;;;3.58;3.25;;;25.20;60.00;;;;;;4873880;28;88404;-88
2023/09/10 01:06:53;;;;;;;3.53;3.22;;;25.30;60.40;;;;;;4854761;28;90200;-87
2023/09/10 01:09:19;;;;;;;;;;;25.20;60.40;;;;;;4859533;28;90283;-87
2023/09/10 01:11:59;;;;;;;4.40;3.17;;;25.20;60.50;;;;;;4875711;28;87677;-87
2023/09/10 01:14:42;;;;;;;3.70;3.40;;;25.20;60.20;;;;;;4874136;28;89708;-87
2023/09/10 01:17:14;;;;;;;3.80;3.40;;;25.20;60.30;;;;;;4871964;28;89097;-88
2023/09/10 01:19:52;;;;;;;3.42;3.13;;;25.20;60.40;;;;;;4874682;28;89332;-88
2023/09/10 01:22:43;;;;;;;3.30;3.00;;;25.20;60.70;;;;;;4870747;28;87933;-85
2023/09/10 01:25:09;;;;;;;3.97;3.60;;;25.20;60.80;;;;;;4873518;28;91349;-87
2023/09/10 01:27:35;;;;;;;4.03;3.60;;;25.20;60.80;;;;;;4875057;28;87962;-87
2023/09/10 01:30:01;;;;;;;4.18;3.78;;;25.20;60.80;;;;;;4875020;28;87856;-88
2023/09/10 01:32:31;;;;;;;3.22;2.92;;;25.20;60.70;;;;;;4870996;28;87347;-89
2023/09/10 01:35:19;;;;;;;3.67;3.38;;;25.20;61.00;;;;;;4872904;28;89194;-88
2023/09/10 01:37:50;;;;;;;4.20;3.63;;;25.20;61.00;;;;;;4873736;28;88235;-86
2023/09/10 01:40:21;;;;;;;3.55;3.25;;;25.20;61.00;;;;;;4876168;28;87904;-87
2023/09/10 01:42:48;;;;;;;6.47;3.95;;;25.20;61.10;;;;;;4873748;28;89093;-87
2023/09/10 01:45:15;;;;;;;3.85;3.45;;;25.20;61.30;;;;;;4872398;28;87968;-88
2023/09/10 01:47:41;;;;;;;3.42;3.15;;;25.20;61.20;;;;;;4855281;28;90641;-88
2023/09/10 01:50:07;;;;;;;3.97;3.58;;;25.20;61.20;;;;;;4872846;28;87973;-86
2023/09/10 01:52:33;;;;;;;3.88;3.47;;;25.20;61.40;;;;;;4856658;28;88245;-87
2023/09/10 01:54:58;;;;;;;4.50;3.35;;;25.20;61.30;;;;;;4859175;28;89220;-87
2023/09/10 01:57:24;;;;;;;3.35;3.05;;;25.20;61.30;;;;;;4871753;28;87745;-88
2023/09/10 01:59:50;;;;;;;3.45;3.15;;;25.20;61.30;;;;;;4854727;28;89421;-87
2023/09/10 02:02:16;;;;;;;4.28;3.88;;;25.20;61.40;;;;;;4873484;28;87931;-87
2023/09/10 02:04:41;;;;;;;4.10;3.75;;;25.20;61.50;;;;;;4871048;28;88586;-87
2023/09/10 02:07:07;;;;;;;4.45;3.30;;;25.20;61.40;;;;;;4876402;28;89250;-88
2023/09/10 02:09:33;;;;;;;4.22;3.83;;;25.20;61.60;;;;;;4874211;28;87456;-87
2023/09/10 02:11:58;;;;;;;4.55;3.20;;;25.20;61.60;;;;;;4874632;28;87577;-87
2023/09/10 02:14:24;;;;;;;3.75;3.45;;;25.20;61.70;;;;;;4871972;28;86945;-88
2023/09/10 02:16:49;;;;;;;3.65;3.35;;;25.20;61.90;;;;;;4853043;28;91735;-87
2023/09/10 02:19:15;;;;;;;3.42;3.13;;;25.10;61.80;;;;;;4857273;28;91463;-87
2023/09/10 02:21:41;;;;;;;4.75;3.00;;;25.20;62.10;;;;;;4871892;28;87561;-86
2023/09/10 02:24:06;;;;;;;3.70;3.40;;;25.10;61.90;;;;;;4856166;28;88081;-85
2023/09/10 02:26:32;;;;;;;3.40;3.10;;;25.20;61.90;;;;;;4870750;28;89554;-87
2023/09/10 02:28:58;;;;;;;3.15;2.85;;;25.20;61.70;;;;;;4872094;28;87807;-87
2023/09/10 02:31:25;;;;;;;3.25;2.95;;;25.10;62.10;;;;;;4868642;28;89013;-88
2023/09/10 02:33:50;;;;;;;3.58;3.28;;;25.10;62.00;;;;;;4876239;28;88057;-87
2023/09/10 02:36:16;;;;;;;3.67;3.30;;;25.20;61.90;;;;;;4875763;28;87924;-86
2023/09/10 02:38:42;;;;;;;3.65;3.30;;;25.10;61.90;;;;;;4873663;28;87772;-89
2023/09/10 02:41:07;;;;;;;4.10;3.70;;;25.10;61.90;;;;;;4856820;28;87478;-88
2023/09/10 02:43:33;;;;;;;4.40;3.90;;;25.20;62.20;;;;;;4872341;28;87425;-87
2023/09/10 02:45:59;;;;;;;4.63;3.97;;;25.10;62.20;;;;;;4874258;28;87489;-87
2023/09/10 02:48:24;;;;;;;4.13;3.53;;;25.10;62.20;;;;;;4870674;28;87279;-85
2023/09/10 02:50:50;;;;;;;3.72;3.35;;;25.10;62.20;;;;;;4856016;28;88161;-86
2023/09/10 02:53:15;;;;;;;4.28;3.60;;;25.10;62.10;;;;;;4850764;28;88972;-88
2023/09/10 02:55:41;;;;;;;4.68;3.85;;;25.10;62.30;;;;;;4871265;28;89533;-87
2023/09/10 02:58:07;;;;;;;3.72;3.22;;;25.10;62.30;;;;;;4869612;28;88325;-88
2023/09/10 03:00:32;;;;;;;3.45;3.15;;;25.10;62.40;;;;;;4873700;28;88579;-87
2023/09/10 03:02:58;;;;;;;3.42;3.10;;;25.10;62.20;;;;;;4871539;28;89695;-88
2023/09/10 03:05:24;;;;;;;4.00;3.60;;;25.10;62.60;;;;;;4875817;28;88472;-87
2023/09/10 03:07:53;;;;;;;3.75;3.25;;;25.10;62.40;;;;;;4864160;28;91261;-88
2023/09/10 03:10:19;;;;;;;;;;;25.10;62.30;;;;;;4854320;28;87224;-87
2023/09/10 03:12:44;;;;;;;3.03;2.78;;;25.10;62.50;;;;;;4873317;28;87707;-87
2023/09/10 03:15:10;;;;;;;3.50;3.20;;;25.10;62.40;;;;;;4872661;28;88104;-86
2023/09/10 03:17:36;;;;;;;3.72;3.42;;;25.10;62.60;;;;;;4870989;28;87525;-87
2023/09/10 03:20:04;;;;;;;3.97;3.58;;;25.10;62.60;;;;;;4871872;28;89060;-86
2023/09/10 03:22:30;;;;;;;3.45;3.15;;;25.10;62.70;;;;;;4853365;28;89827;-88
2023/09/10 03:24:57;;;;;;;3.95;3.33;;;25.10;62.60;;;;;;4872981;28;90630;-87
2023/09/10 03:27:22;;;;;;;3.50;3.20;;;25.10;62.50;;;;;;4856415;28;90162;-87
2023/09/10 03:29:48;;;;;;;4.82;3.05;;;25.10;62.60;;;;;;4857645;28;87780;-85
2023/09/10 03:32:13;;;;;;;3.85;3.45;;;25.10;62.70;;;;;;4871351;28;88481;-85
2023/09/10 03:34:41;;;;;;;4.35;3.30;;;25.10;62.70;;;;;;4856395;28;90242;-87
2023/09/10 03:37:07;;;;;;;3.85;3.53;;;25.10;62.90;;;;;;4870480;28;90159;-87
2023/09/10 03:39:33;;;;;;;3.40;3.10;;;25.10;62.70;;;;;;4874232;28;88112;-85
2023/09/10 03:41:59;;;;;;;3.53;3.22;;;25.10;62.70;;;;;;4870896;28;87781;-87
2023/09/10 03:44:25;;;;;;;3.53;3.22;;;25.10;62.80;;;;;;4866579;28;89246;-85
2023/09/10 03:46:51;;;;;;;3.33;2.85;;;25.10;62.80;;;;;;4853672;28;91641;-87
2023/09/10 03:49:17;;;;;;;3.60;3.30;;;25.10;62.90;;;;;;4872734;28;87401;-85
2023/09/10 03:51:43;;;;;;;3.30;3.00;;;25.10;62.80;;;;;;4871861;28;87445;-87
2023/09/10 03:54:11;;;;;;;3.45;3.15;;;25.10;62.70;;;;;;4852222;28;90832;-87
2023/09/10 03:56:37;;;;;;;3.40;3.10;;;25.00;62.70;;;;;;4869771;28;87831;-87
2023/09/10 03:59:03;;;;;;;3.70;3.13;;;25.00;62.80;;;;;;4867218;28;87889;-87
2023/09/10 04:01:29;;;;;;;3.20;2.90;;;25.10;63.00;;;;;;4858509;28;89321;-86
2023/09/10 04:03:55;;;;;;;3.35;3.03;;;25.00;63.10;;;;;;4855235;28;90864;-87
2023/09/10 04:06:20;;;;;;;3.72;3.42;;;25.10;63.20;;;;;;4868792;28;90008;-90
2023/09/10 04:08:46;;;;;;;3.20;2.90;;;25.00;62.70;;;;;;4874116;28;88323;-87
2023/09/10 04:11:12;;;;;;;3.90;3.42;;;25.00;62.80;;;;;;4872033;28;87596;-88
2023/09/10 04:13:37;;;;;;;3.25;2.95;;;25.00;63.00;;;;;;4873491;28;88098;-87
2023/09/10 04:16:03;;;;;;;3.75;3.45;;;25.00;63.00;;;;;;4868960;28;90753;-86
2023/09/10 04:18:29;;;;;;;3.78;3.33;;;25.00;63.00;;;;;;4873307;28;87486;-85
2023/09/10 04:20:54;;;;;;;3.25;2.95;;;25.10;63.10;;;;;;4869275;28;87504;-86
2023/09/10 04:23:20;;;;;;;3.53;3.10;;;25.10;63.20;;;;;;4872803;28;88376;-88
2023/09/10 04:25:45;;;;;;;2.88;2.60;;;25.00;63.10;;;;;;4858960;28;90299;-88
2023/09/10 04:28:11;;;;;;;4.05;3.10;;;25.00;63.10;;;;;;4870214;28;87560;-87
2023/09/10 04:30:37;;;;;;;3.60;3.30;;;25.00;63.20;;;;;;4859078;28;89231;-88
2023/09/10 04:33:02;;;;;;;3.55;2.97;;;25.00;63.20;;;;;;4871640;28;89586;-87
2023/09/10 04:35:28;;;;;;;4.32;3.40;;;25.00;63.00;;;;;;4874110;28;89241;-87
2023/09/10 04:37:54;;;;;;;3.35;3.05;;;25.00;63.20;;;;;;4858967;28;88573;-86
2023/09/10 04:40:19;;;;;;;3.17;2.97;;;25.00;63.00;;;;;;4873551;28;88875;-86
2023/09/10 04:42:45;;;;;;;4.20;3.80;;;25.00;63.30;;;;;;4876533;28;88205;-86
2023/09/10 04:45:11;;;;;;;3.90;3.45;;;25.00;63.20;;;;;;4874345;28;87685;-88
2023/09/10 04:47:36;;;;;;;3.88;3.58;;;25.00;63.50;;;;;;4875505;28;88290;-87
2023/09/10 04:50:03;;;;;;;3.33;3.00;;;25.00;63.20;;;;;;4856786;28;89224;-87
2023/09/10 04:52:29;;;;;;;3.92;3.15;;;25.00;63.20;;;;;;4855748;28;89243;-87
2023/09/10 04:54:54;;;;;;;3.40;3.10;;;25.00;63.30;;;;;;4873277;28;87561;-86
2023/09/10 04:57:20;;;;;;;4.20;3.80;;;25.00;63.30;;;;;;4871885;28;89158;-88
2023/09/10 04:59:46;;;;;;;3.70;3.08;;;25.00;63.30;;;;;;4874382;28;87702;-87
2023/09/10 05:02:12;;;;;;;3.78;3.45;;;25.00;63.30;;;;;;4858256;28;91818;-87
2023/09/10 05:04:37;;;;;;;3.60;3.30;;;25.00;63.50;;;;;;4848022;28;90287;-87
2023/09/10 05:07:03;;;;;;;3.17;2.88;;;25.00;63.50;;;;;;4859119;28;87396;-88
2023/09/10 05:09:29;;;;;;;3.78;2.72;;;25.00;63.80;;;;;;4875152;28;87642;-87
2023/09/10 05:11:56;;;;;;;3.58;3.10;;;25.00;63.60;;;;;;4878093;28;88143;-87
2023/09/10 05:14:22;;;;;;;3.33;2.88;;;25.00;63.60;;;;;;4863409;28;89193;-86
2023/09/10 05:16:48;;;;;;;3.53;3.22;;;25.00;63.60;;;;;;4865098;28;88311;-86
2023/09/10 05:19:13;;;;;;;3.55;3.03;;;25.00;63.50;;;;;;4880711;28;89754;-87
2023/09/10 05:21:39;;;;;;;4.82;3.53;;;25.00;63.50;;;;;;4888876;28;88565;-87
2023/09/10 05:24:06;;;;;;;4.40;3.47;;;25.00;63.30;;;;;;4884251;28;87316;-84
2023/09/10 05:26:31;;;;;;;3.67;3.33;;;25.00;63.50;;;;;;4867539;28;87947;-86
2023/09/10 05:28:57;;;;;;;3.55;3.25;;;25.00;63.50;;;;;;4882580;28;87379;-86
2023/09/10 05:31:22;;;;;;;3.83;3.42;;;25.00;63.40;;;;;;4882315;28;90634;-87
2023/09/10 05:33:48;;;;;;;2.80;2.60;;;25.00;63.60;;;;;;4861041;28;89094;-86
2023/09/10 05:36:14;;;;;;;6.65;3.45;;;25.00;63.60;;;;;;4874703;28;87061;-83
2023/09/10 05:38:39;;;;;;;7.03;3.78;;;25.00;63.50;;;;;;4876441;28;87865;-84
2023/09/10 05:41:07;;;;;;;7.40;5.15;;;25.00;64.00;;;;;;4879747;28;87559;-85
2023/09/10 05:43:33;;;;;;;7.07;5.32;;;24.90;64.60;;;;;;4874557;28;87972;-84
2023/09/10 05:45:59;;;;;;;12.32;6.40;;;24.90;64.50;;;;;;4889320;28;89666;-84
2023/09/10 05:48:24;;;;;;;12.10;6.00;;;24.80;64.30;;;;;;4905998;28;87509;-84
2023/09/10 05:50:55;;;;;;;13.05;6.05;;;24.80;64.80;;;;;;4898155;28;88140;-82
2023/09/10 05:53:21;;;;;;;15.43;5.72;;;24.80;65.00;;;;;;4892845;28;87433;-83
2023/09/10 05:55:47;;;;;;;13.07;5.55;;;24.70;65.20;;;;;;4889237;28;87940;-82
2023/09/10 05:58:14;;;;;;;11.45;5.70;;;24.70;65.40;;;;;;4856809;28;89528;-85
2023/09/10 06:00:39;;;;;;;9.38;5.40;;;24.60;65.40;;;;;;4877945;28;87291;-83
2023/09/10 06:03:07;;;;;;;9.32;5.28;;;24.70;65.60;;;;;;4870424;28;88686;-81
2023/09/10 06:05:33;;;;;;;16.25;6.32;;;24.70;65.70;;;;;;4864449;28;87414;-82
2023/09/10 06:07:59;;;;;;;17.02;5.88;;;24.70;65.90;;;;;;4871743;28;87779;-81
2023/09/10 06:10:25;;;;;;;12.40;5.70;;;24.70;66.10;;;;;;4870983;28;89789;-81
2023/09/10 06:12:50;;;;;;;18.25;6.10;;;24.60;66.00;;;;;;4871102;28;88750;-84
2023/09/10 06:15:16;;;;;;;15.32;6.15;;;24.60;66.00;;;;;;4871178;28;87621;-84
2023/09/10 06:17:42;;;;;;;12.65;5.70;;;24.70;66.30;;;;;;4867963;28;88295;-85
2023/09/10 06:20:09;;;;;;;13.68;6.00;;;24.70;66.50;;;;;;4874104;28;88208;-81
2023/09/10 06:22:34;;;;;;;11.18;5.57;;;24.70;66.80;;;;;;4868090;28;90739;-85
2023/09/10 06:25:00;;;;;;;12.20;6.03;;;24.70;66.90;;;;;;4871740;28;87026;-82
2023/09/10 06:27:26;;;;;;;9.98;6.05;;;24.70;67.30;;;;;;4869641;28;87502;-84
2023/09/10 06:29:51;;;;;;;18.17;6.20;;;24.70;67.50;;;;;;4867950;28;87554;-84
2023/09/10 06:32:17;;;;;;;9.48;6.57;;;24.60;67.80;;;;;;4871037;28;88369;-84
2023/09/10 06:34:43;;;;;;;13.43;6.45;;;24.60;68.20;;;;;;4867826;28;94878;-85
2023/09/10 06:37:08;;;;;;;10.00;6.18;;;24.60;68.40;;;;;;4872836;28;87736;-85
2023/09/10 06:39:38;;;;;;;15.98;6.95;;;24.70;68.70;;;;;;4872388;28;88217;-83
2023/09/10 06:42:06;;;;;;;17.10;7.20;;;24.70;68.60;;;;;;4871215;28;88874;-83
2023/09/10 06:44:32;;;;;;;12.77;6.47;;;24.70;69.10;;;;;;4872143;28;88064;-85
2023/09/10 06:46:59;;;;;;;14.02;6.43;;;24.70;69.20;;;;;;4873574;28;87596;-86
2023/09/10 06:49:25;;;;;;;14.32;6.95;;;24.80;69.00;;;;;;4870672;28;88227;-82
2023/09/10 06:51:50;;;;;;;11.50;6.95;;;24.80;69.40;;;;;;4867084;28;87229;-84
2023/09/10 06:54:16;;;;;;;11.25;7.10;;;24.80;69.50;;;;;;4869298;28;87531;-84
2023/09/10 06:56:42;;;;;;;12.63;6.72;;;24.80;69.80;;;;;;4869263;28;88022;-84
2023/09/10 06:59:08;;;;;;;12.77;7.03;;;24.90;70.10;;;;;;4870713;28;88873;-84
2023/09/10 07:01:37;;;;;;;11.93;6.63;;;24.90;70.10;;;;;;4874921;28;89430;-84
2023/09/10 07:04:19;;;;;;;18.17;7.78;;;24.90;70.40;;;;;;4871779;28;86965;-84
2023/09/10 07:06:48;;;;;;;15.57;7.00;;;24.90;70.60;;;;;;4873117;28;87361;-82
2023/09/10 07:09:17;;;;;;;105.50;31.10;;;25.00;70.50;;;;;;4870829;28;88340;-84
2023/09/10 07:11:43;;;;;;;73.20;22.10;;;25.10;70.60;;;;;;4869878;28;94830;-83
2023/09/10 07:14:09;;;;;;;43.03;14.15;;;25.10;70.70;;;;;;4874775;28;87313;-83
2023/09/10 07:16:35;;;;;;;31.88;11.93;;;25.20;70.50;;;;;;4860579;28;88215;-84
2023/09/10 07:19:01;;;;;;;27.30;10.73;;;25.10;70.30;;;;;;4873521;28;88736;-84
2023/09/10 07:21:27;;;;;;;20.50;9.40;;;25.20;70.30;;;;;;4876392;28;87134;-84
2023/09/10 07:23:53;;;;;;;23.08;9.52;;;25.20;70.40;;;;;;4855218;28;88525;-85
2023/09/10 07:26:19;;;;;;;14.25;8.25;;;25.20;70.30;;;;;;4872165;28;89900;-85
2023/09/10 07:28:44;;;;;;;17.02;8.00;;;25.30;70.20;;;;;;4872136;28;87255;-86
2023/09/10 07:31:10;;;;;;;16.00;8.18;;;25.30;70.50;;;;;;4850877;28;91216;-83
2023/09/10 07:33:36;;;;;;;16.45;7.40;;;25.30;70.70;;;;;;4870803;28;87395;-84
2023/09/10 07:36:01;;;;;;;15.68;7.93;;;25.30;70.70;;;;;;4870977;28;87076;-86
2023/09/10 07:38:27;;;;;;;12.38;6.45;;;25.20;70.40;;;;;;4870610;28;90263;-85
2023/09/10 07:40:53;;;;;;;12.13;7.15;;;25.20;70.20;;;;;;4875209;28;88003;-86
2023/09/10 07:43:19;;;;;;;12.23;7.10;;;25.20;70.60;;;;;;4868457;28;87571;-86
2023/09/10 07:45:45;;;;;;;12.02;7.60;;;25.20;70.70;;;;;;4870642;28;87551;-84
2023/09/10 07:48:12;;;;;;;13.13;7.32;;;25.20;70.20;;;;;;4867628;28;90779;-85
2023/09/10 07:50:37;;;;;;;14.55;7.35;;;25.20;70.30;;;;;;4862336;28;88380;-86
2023/09/10 07:53:03;;;;;;;12.13;6.78;;;25.20;70.30;;;;;;4867577;28;87694;-86
2023/09/10 07:55:33;;;;;;;13.23;7.70;;;25.20;70.60;;;;;;4868024;28;87041;-89
2023/09/10 07:57:59;;;;;;;13.95;7.43;;;25.20;70.20;;;;;;4871438;28;93311;-85
2023/09/10 08:00:25;;;;;;;26.42;10.13;;;25.20;70.00;;;;;;4874120;28;88531;-84
2023/09/10 08:02:50;;;;;;;38.70;11.05;;;25.30;70.20;;;;;;4870577;28;87110;-84
2023/09/10 08:05:16;;;;;;;32.08;11.77;;;25.30;70.00;;;;;;4873271;28;86999;-84
2023/09/10 08:07:42;;;;;;;25.58;10.68;;;25.30;70.40;;;;;;4870208;28;87694;-83
2023/09/10 08:10:08;;;;;;;29.63;10.70;;;25.30;70.20;;;;;;4872461;28;87409;-85
2023/09/10 08:12:33;;;;;;;23.60;9.73;;;25.30;70.00;;;;;;4873576;28;89048;-86
2023/09/10 08:14:59;;;;;;;21.35;10.02;;;25.30;70.20;;;;;;4872997;28;87965;-87
2023/09/10 08:17:25;;;;;;;23.23;9.25;;;25.30;70.30;;;;;;4872454;28;87767;-85
2023/09/10 08:19:50;;;;;;;26.05;9.88;;;25.30;70.20;;;;;;4871367;28;87426;-86
2023/09/10 08:22:17;;;;;;;24.13;9.25;;;25.30;70.40;;;;;;4859033;28;87718;-81
2023/09/10 08:24:42;;;;;;;21.08;9.55;;;25.30;70.30;;;;;;4872925;28;88500;-83
2023/09/10 08:27:11;;;;;;;22.10;10.10;;;25.30;70.00;;;;;;4871026;28;87989;-85
2023/09/10 08:29:37;;;;;;;19.05;9.07;;;25.30;70.10;;;;;;4878466;28;87534;-85
2023/09/10 08:32:03;;;;;;;18.30;9.00;;;25.30;69.60;;;;;;4868135;28;87412;-86
2023/09/10 08:34:29;;;;;;;15.77;8.40;;;25.40;69.80;;;;;;4874324;28;87734;-82
2023/09/10 08:36:54;;;;;;;17.42;9.35;;;25.40;70.40;;;;;;4872375;28;89533;-82
2023/09/10 08:39:20;;;;;;;21.83;10.02;;;25.40;69.70;;;;;;4871990;28;89014;-81
2023/09/10 08:42:01;;;;;;;22.35;9.93;;;25.50;70.80;;;;;;4873423;28;87959;-84
2023/09/10 08:44:29;;;;;;;17.85;9.45;;;25.50;70.40;;;;;;4872458;28;87790;-84
2023/09/10 08:46:59;;;;;;;17.60;8.70;;;25.50;70.60;;;;;;4862467;28;88287;-84
2023/09/10 08:49:28;;;;;;;18.42;8.90;;;25.50;70.50;;;;;;4871832;28;88310;-82
2023/09/10 08:51:55;;;;;;;16.95;8.73;;;25.50;71.20;;;;;;4867697;28;87631;-83
2023/09/10 08:54:21;;;;;;;19.60;9.10;;;25.50;71.10;;;;;;4873388;28;87338;-83
2023/09/10 08:56:48;;;;;;;17.48;8.95;;;25.50;71.70;;;;;;4867586;28;91067;-85
2023/09/10 08:59:15;;;;;;;19.45;8.43;;;25.50;71.80;;;;;;4871210;28;87254;-85
2023/09/10 09:01:44;;;;;;;13.77;8.88;;;25.50;72.20;;;;;;4870502;28;89057;-82
2023/09/10 09:04:12;;;;;;;15.38;8.30;;;25.50;71.90;;;;;;4870763;28;87853;-81
2023/09/10 09:06:43;;;;;;;15.40;7.88;;;25.60;72.70;;;;;;4896597;28;91085;-84
2023/09/10 09:09:11;;;;;;;14.55;8.32;;;25.60;72.50;;;;;;4892703;28;87803;-82
2023/09/10 09:11:39;;;;;;;16.87;7.93;;;25.60;73.00;;;;;;4883996;28;88237;-82
2023/09/10 09:14:08;;;;;;;13.45;8.38;;;25.60;72.70;;;;;;4870232;28;87883;-83
2023/09/10 09:16:34;;;;;;;;;;;25.60;73.10;;;;;;4870443;28;88609;-82
2023/09/10 09:19:04;;;;;;;17.20;7.88;;;25.70;73.10;;;;;;4872904;28;87413;-80
2023/09/10 09:21:30;;;;;;;16.98;8.63;;;25.70;72.70;;;;;;4870603;28;88098;-83
2023/09/10 09:24:00;;;;;;;11.52;7.47;;;25.70;72.80;;;;;;4871501;28;87975;-83
2023/09/10 09:26:27;;;;;;;14.02;7.60;;;25.70;72.60;;;;;;4870966;28;89926;-84
2023/09/10 09:28:57;;;;;;;14.32;8.77;;;25.70;72.30;;;;;;4872772;28;90182;-84
2023/09/10 09:31:24;;;;;;;14.07;7.78;;;25.70;72.20;;;;;;4903494;28;87474;-85
2023/09/10 09:33:51;;;;;;;9.85;6.22;;;25.70;71.70;;;;;;4891237;28;89653;-86
2023/09/10 09:36:17;;;;;;;13.15;8.70;;;25.60;72.30;;;;;;4893685;28;88042;-83
2023/09/10 09:38:47;;;;;;;9.25;6.93;;;25.70;73.10;;;;;;4879627;28;87678;-84
2023/09/10 09:41:17;;;;;;;21.83;8.38;;;25.60;72.90;;;;;;4877581;28;91630;-81
2023/09/10 09:43:43;;;;;;;33.67;11.57;;;25.60;72.70;;;;;;4900149;28;89341;-83
2023/09/10 09:46:09;;;;;;;23.83;9.35;;;25.60;73.20;;;;;;4890002;28;88135;-81
2023/09/10 09:48:35;;;;;;;23.33;9.93;;;25.60;73.40;;;;;;4872023;28;88606;-82
2023/09/10 09:51:02;;;;;;;26.13;10.15;;;25.60;73.30;;;;;;4869263;28;88874;-83
2023/09/10 09:53:31;;;;;;;21.58;9.15;;;25.60;73.00;;;;;;4854172;28;88485;-81
2023/09/10 09:56:01;;;;;;;19.43;9.33;;;25.60;72.60;;;;;;4872648;28;89447;-84
2023/09/10 09:58:29;;;;;;;21.58;9.45;;;25.60;72.80;;;;;;4867859;28;87795;-85
2023/09/10 10:00:55;;;;;;;21.60;9.48;;;25.60;73.80;;;;;;4869151;28;87568;-84
2023/09/10 10:03:21;;;;;;;22.95;8.52;;;25.70;73.40;;;;;;4870354;28;87897;-83
2023/09/10 10:05:54;;;;;;;18.85;8.90;;;25.90;73.80;;;;;;4871410;28;88527;-84
2023/09/10 10:08:26;;;;;;;14.23;8.00;;;26.00;73.40;;;;;;4869909;28;86833;-84
2023/09/10 10:10:52;;;;;;;17.08;8.32;;;26.00;72.90;;;;;;4872830;28;87695;-84
2023/09/10 10:13:19;;;;;;;18.25;8.10;;;26.10;72.80;;;;;;4871445;28;88286;-83
2023/09/10 10:15:53;;;;;;;21.77;7.57;;;26.10;72.60;;;;;;4868903;28;89582;-83
2023/09/10 10:18:20;;;;;;;15.05;8.90;;;26.20;72.50;;;;;;4852167;28;90492;-83
2023/09/10 10:20:49;;;;;;;13.85;7.75;;;26.10;72.10;;;;;;4853446;28;87500;-83
2023/09/10 10:23:16;;;;;;;17.88;7.80;;;26.10;72.20;;;;;;4871198;28;87449;-83
2023/09/10 10:25:43;;;;;;;19.55;7.65;;;26.20;72.20;;;;;;4855030;28;88731;-81
2023/09/10 10:28:09;;;;;;;12.25;7.13;;;26.20;71.90;;;;;;4868141;28;88108;-83
2023/09/10 10:30:54;;;;;;;15.32;8.30;;;26.20;71.50;;;;;;4871640;28;87876;-86
2023/09/10 10:33:23;;;;;;;18.42;8.27;;;26.20;72.40;;;;;;4868656;28;87644;-85
2023/09/10 10:36:06;;;;;;;12.97;7.17;;;26.00;71.90;;;;;;4871687;28;87809;-82
2023/09/10 10:38:36;;;;;;;12.05;7.25;;;25.90;72.30;;;;;;4872314;28;87830;-82
2023/09/10 10:41:13;;;;;;;14.15;7.22;;;25.80;72.30;;;;;;4867184;28;89179;-86
2023/09/10 10:43:42;;;;;;;13.13;7.60;;;25.80;72.80;;;;;;4867971;28;87931;-85
2023/09/10 10:46:09;;;;;;;13.80;7.55;;;25.80;72.60;;;;;;4866841;28;87638;-83
2023/09/10 10:48:39;;;;;;;16.15;7.60;;;25.70;73.50;;;;;;4868116;28;87822;-86
2023/09/10 10:51:10;;;;;;;14.10;8.02;;;25.80;73.10;;;;;;4870201;28;88105;-85
2023/09/10 10:53:35;;;;;;;13.57;7.35;;;25.80;73.20;;;;;;4870588;28;87929;-84
2023/09/10 10:56:04;;;;;;;14.77;8.23;;;25.80;73.50;;;;;;4867151;28;90592;-83
2023/09/10 10:58:31;;;;;;;13.15;7.88;;;26.00;73.10;;;;;;4870785;28;87262;-84
2023/09/10 11:00:58;;;;;;;17.65;7.95;;;26.10;72.60;;;;;;4869802;28;87234;-84
2023/09/10 11:03:25;;;;;;;16.15;7.30;;;26.20;72.10;;;;;;4868103;28;87232;-84
2023/09/10 11:05:53;;;;;;;21.98;6.82;;;26.20;72.20;;;;;;4868345;28;89120;-85
2023/09/10 11:08:30;;;;;;;17.17;7.75;;;26.30;71.90;;;;;;4863804;28;91682;-85
2023/09/10 11:10:56;;;;;;;12.68;7.65;;;26.30;71.80;;;;;;4872951;28;87698;-82
2023/09/10 11:13:22;;;;;;;16.95;7.40;;;26.40;71.40;;;;;;4873182;28;87884;-82
2023/09/10 11:16:06;;;;;;;14.23;7.50;;;26.30;71.20;;;;;;4865525;28;89015;-85
2023/09/10 11:18:37;;;;;;;19.52;7.43;;;26.20;71.50;;;;;;4873565;28;88118;-83
2023/09/10 11:21:10;;;;;;;17.73;7.85;;;26.10;71.70;;;;;;4869740;28;88325;-84
2023/09/10 11:24:08;;;;;;;15.63;7.28;;;26.00;71.90;;;;;;4870583;28;87604;-82
2023/09/10 11:26:33;;;;;;;17.52;7.45;;;26.00;71.70;;;;;;4866574;28;87678;-85
2023/09/10 11:29:01;;;;;;;20.83;8.43;;;26.00;71.80;;;;;;4851965;28;90393;-86
2023/09/10 11:31:45;;;;;;;18.15;7.60;;;26.00;71.40;;;;;;4867440;28;89217;-86
2023/09/10 11:36:47;;;;;;;14.05;7.65;;;25.80;71.50;;;;;;4866978;28;88047;-83
2023/09/10 11:39:14;;;;;;;13.55;7.28;;;25.80;71.60;;;;;;4873371;28;87281;-85
2023/09/10 11:42:01;;;;;;;11.65;7.13;;;25.80;71.60;;;;;;4866912;28;88155;-83
2023/09/10 11:44:28;;;;;;;11.68;6.82;;;25.80;71.40;;;;;;4868926;28;87068;-83
2023/09/10 11:46:54;;;;;;;12.65;6.68;;;25.80;71.50;;;;;;4868991;28;88304;-84
2023/09/10 11:49:22;;;;;;;14.70;7.13;;;25.80;71.20;;;;;;4869065;28;87570;-85
2023/09/10 11:51:50;;;;;;;16.52;7.03;;;25.90;71.10;;;;;;4866014;28;88228;-85
2023/09/10 11:54:17;;;;;;;10.85;7.07;;;25.80;71.00;;;;;;4868726;28;87417;-86
2023/09/10 11:56:51;;;;;;;14.98;6.68;;;25.80;71.10;;;;;;4868412;28;88960;-85
2023/09/10 11:59:19;;;;;;;12.75;6.63;;;25.80;70.70;;;;;;4867499;28;88812;-84
2023/09/10 12:01:46;;;;;;;15.30;6.73;;;25.80;70.90;;;;;;4868362;28;88222;-85
2023/09/10 12:04:13;;;;;;;16.70;6.88;;;25.80;70.70;;;;;;4873059;28;88291;-84
2023/09/10 12:06:39;;;;;;;12.50;6.68;;;25.80;70.90;;;;;;4867562;28;87560;-85
2023/09/10 12:09:05;;;;;;;12.43;7.45;;;25.90;70.70;;;;;;4867924;28;87781;-87
2023/09/10 12:11:32;;;;;;;14.52;7.18;;;25.80;70.90;;;;;;4869819;28;88122;-85
2023/09/10 12:13:58;;;;;;;10.50;6.63;;;25.80;70.50;;;;;;4870134;28;87338;-84
2023/09/10 12:16:23;;;;;;;14.80;6.95;;;25.80;70.40;;;;;;4869905;28;88091;-85
2023/09/10 12:18:50;;;;;;;10.23;6.25;;;25.80;70.40;;;;;;4867087;28;90070;-84
2023/09/10 12:21:18;;;;;;;14.07;6.22;;;25.80;70.60;;;;;;4865765;28;88830;-85
2023/09/10 12:23:44;;;;;;;9.25;6.30;;;25.80;70.30;;;;;;4867820;28;88336;-85
2023/09/10 12:26:11;;;;;;;10.60;6.97;;;25.80;70.70;;;;;;4866546;28;88241;-86
2023/09/10 12:28:38;;;;;;;10.25;6.97;;;25.80;70.50;;;;;;4871404;28;88366;-85
2023/09/10 12:31:04;;;;;;;12.05;7.00;;;25.80;70.60;;;;;;4867826;28;86990;-82
2023/09/10 12:33:31;;;;;;;11.55;6.18;;;25.80;70.40;;;;;;4869886;28;87638;-86
2023/09/10 12:35:57;;;;;;;13.93;6.70;;;25.80;70.40;;;;;;4847317;28;90677;-83
2023/09/10 12:38:22;;;;;;;14.35;6.32;;;25.80;70.30;;;;;;4846500;28;89356;-86
2023/09/10 12:40:50;;;;;;;12.13;6.10;;;25.80;70.10;;;;;;4865214;28;87748;-85
2023/09/10 12:43:19;;;;;;;13.10;6.55;;;25.80;70.10;;;;;;4853108;28;88437;-85
2023/09/10 12:45:48;;;;;;;9.77;6.25;;;25.80;70.20;;;;;;4869787;28;88981;-83